Time;durP1;ratioP1;P1;durP2;ratioP2;P2;SDS_P1;SDS_P2;PMS_P1;PMS_P2;Temp;Humidity;BMP_temperature;BMP_pressure;BME280_temperature;BME280_humidity;BME280_pressure;Samples;Min_cycle;Max_cycle;Signal;HPM_P1;HPM_P2
2023/05/13 00:01:15;;;;;;;4.10;3.80;;;10.50;99.90;;;;;;5034639;28;20057;-76
2023/05/13 00:03:41;;;;;;;4.32;3.92;;;10.40;99.90;;;;;;5035654;28;20049;-76
2023/05/13 00:06:07;;;;;;;3.90;3.50;;;10.40;99.90;;;;;;5036049;28;20489;-75
2023/05/13 00:08:33;;;;;;;3.92;3.63;;;10.50;99.90;;;;;;5034406;28;20029;-77
2023/05/13 00:10:59;;;;;;;4.10;3.70;;;10.40;99.90;;;;;;5035685;28;20024;-76
2023/05/13 00:13:25;;;;;;;4.38;3.47;;;10.40;99.90;;;;;;5035524;28;20038;-76
2023/05/13 00:15:51;;;;;;;5.05;3.67;;;10.40;99.90;;;;;;5034784;28;20048;-75
2023/05/13 00:18:17;;;;;;;4.45;3.78;;;10.40;99.90;;;;;;5034217;28;20041;-77
2023/05/13 00:20:42;;;;;;;4.85;4.10;;;10.40;99.90;;;;;;5035875;28;20051;-75
2023/05/13 00:23:09;;;;;;;4.32;3.92;;;10.50;99.90;;;;;;5035379;28;20036;-75
2023/05/13 00:25:34;;;;;;;4.07;3.33;;;10.40;99.90;;;;;;5036133;28;20027;-76
2023/05/13 00:28:00;;;;;;;5.90;3.70;;;10.50;99.90;;;;;;5033056;28;20494;-76
2023/05/13 00:30:26;;;;;;;5.28;3.92;;;10.40;99.90;;;;;;5035721;28;20036;-77
2023/05/13 00:32:51;;;;;;;9.23;4.20;;;10.40;99.90;;;;;;5033868;28;20028;-76
2023/05/13 00:35:17;;;;;;;3.75;3.45;;;10.40;99.90;;;;;;5035475;28;20509;-77
2023/05/13 00:37:43;;;;;;;4.20;3.80;;;10.50;99.90;;;;;;5033378;28;20195;-78
2023/05/13 00:40:19;;;;;;;3.72;3.42;;;10.40;99.90;;;;;;5035227;28;20049;-78
2023/05/13 00:42:45;;;;;;;4.47;4.07;;;10.40;99.90;;;;;;5035025;28;20464;-76
2023/05/13 00:45:11;;;;;;;4.30;3.65;;;10.50;99.90;;;;;;5035690;28;20051;-76
2023/05/13 00:47:41;;;;;;;5.18;3.92;;;10.40;99.90;;;;;;5033521;28;20460;-76
2023/05/13 00:50:09;;;;;;;4.88;3.83;;;10.40;99.90;;;;;;5035379;28;20027;-76
2023/05/13 00:52:38;;;;;;;5.57;4.32;;;10.40;99.90;;;;;;5035182;28;20037;-76
2023/05/13 00:55:05;;;;;;;3.75;3.40;;;10.40;99.90;;;;;;5035696;28;20042;-75
2023/05/13 00:57:31;;;;;;;5.22;4.07;;;10.40;99.90;;;;;;5034623;28;20018;-75
2023/05/13 00:59:57;;;;;;;4.85;4.22;;;10.40;99.90;;;;;;5032091;28;20028;-75
2023/05/13 01:02:40;;;;;;;4.05;3.60;;;10.40;99.90;;;;;;5035245;28;20030;-76
2023/05/13 01:05:32;;;;;;;4.70;4.30;;;10.40;99.90;;;;;;5034089;28;20030;-77
2023/05/13 01:08:23;;;;;;;4.05;3.60;;;10.40;99.90;;;;;;5034001;28;20535;-76
2023/05/13 01:10:50;;;;;;;;;;;10.40;99.90;;;;;;5034821;28;20079;-76
2023/05/13 01:13:30;;;;;;;4.25;3.85;;;10.40;99.90;;;;;;5033753;28;19913;-76
2023/05/13 01:16:23;;;;;;;4.50;3.70;;;10.40;99.90;;;;;;5033829;28;20116;-75
2023/05/13 01:18:55;;;;;;;4.57;4.18;;;10.40;99.90;;;;;;5030859;28;20045;-76
2023/05/13 01:21:28;;;;;;;5.03;3.90;;;10.40;99.90;;;;;;5034334;28;20040;-77
2023/05/13 01:23:54;;;;;;;5.22;4.72;;;10.30;99.90;;;;;;5038182;28;20029;-75
2023/05/13 01:26:22;;;;;;;6.13;4.10;;;10.40;99.90;;;;;;5038244;28;20017;-78
2023/05/13 01:28:47;;;;;;;5.25;3.38;;;10.40;99.90;;;;;;5036802;28;20040;-78
2023/05/13 01:31:14;;;;;;;5.95;3.97;;;10.30;99.90;;;;;;5038511;28;20030;-76
2023/05/13 01:33:42;;;;;;;4.95;4.45;;;10.30;99.90;;;;;;5038682;28;20025;-75
2023/05/13 01:36:08;;;;;;;4.70;4.30;;;10.40;99.90;;;;;;5038376;28;20009;-76
2023/05/13 01:38:35;;;;;;;4.85;4.35;;;10.30;99.90;;;;;;5036245;28;20508;-76
2023/05/13 01:41:01;;;;;;;4.10;3.70;;;10.30;99.90;;;;;;5036718;28;20060;-74
2023/05/13 01:43:27;;;;;;;6.47;4.43;;;10.30;99.90;;;;;;5038412;28;20021;-76
2023/05/13 01:45:53;;;;;;;5.72;5.13;;;10.40;99.90;;;;;;5036962;28;20509;-77
2023/05/13 01:48:19;;;;;;;5.93;3.67;;;10.30;99.90;;;;;;5036306;28;20028;-77
2023/05/13 01:50:45;;;;;;;4.20;3.80;;;10.40;99.90;;;;;;5038386;28;20022;-76
2023/05/13 01:53:11;;;;;;;4.93;4.40;;;10.40;99.90;;;;;;5036792;28;20048;-78
2023/05/13 01:55:36;;;;;;;4.57;4.18;;;10.30;99.90;;;;;;5037814;28;20013;-77
2023/05/13 01:58:02;;;;;;;5.93;4.15;;;10.30;99.90;;;;;;5036132;28;20029;-77
2023/05/13 02:00:28;;;;;;;5.53;3.65;;;10.30;99.90;;;;;;5037779;28;20045;-75
2023/05/13 02:02:53;;;;;;;4.60;4.20;;;10.30;99.90;;;;;;5038043;28;20033;-77
2023/05/13 02:05:19;;;;;;;4.05;3.50;;;10.30;99.90;;;;;;5037950;28;20394;-75
2023/05/13 02:07:45;;;;;;;4.65;4.20;;;10.40;99.90;;;;;;5037876;28;20041;-76
2023/05/13 02:10:10;;;;;;;5.10;4.35;;;10.30;99.90;;;;;;5037758;28;20029;-77
2023/05/13 02:12:36;;;;;;;5.90;4.45;;;10.30;99.90;;;;;;5037464;28;20081;-77
2023/05/13 02:15:02;;;;;;;6.13;4.25;;;10.30;99.90;;;;;;5036296;28;20018;-76
2023/05/13 02:17:27;;;;;;;7.30;4.15;;;10.30;99.90;;;;;;5037174;28;20077;-74
2023/05/13 02:19:53;;;;;;;4.85;4.38;;;10.30;99.90;;;;;;5037220;28;20104;-75
2023/05/13 02:22:19;;;;;;;6.53;3.95;;;10.40;99.90;;;;;;5036455;28;20083;-75
2023/05/13 02:24:44;;;;;;;4.70;3.75;;;10.30;99.90;;;;;;5037391;28;20079;-78
2023/05/13 02:27:11;;;;;;;5.78;4.68;;;10.30;99.90;;;;;;5035798;28;20029;-74
2023/05/13 02:29:37;;;;;;;4.65;4.18;;;10.30;99.90;;;;;;5036942;28;20511;-77
2023/05/13 02:32:03;;;;;;;5.60;4.47;;;10.40;99.90;;;;;;5036374;28;20048;-76
2023/05/13 02:34:29;;;;;;;5.20;4.13;;;10.40;99.90;;;;;;5035849;28;20026;-74
2023/05/13 02:36:55;;;;;;;5.32;4.80;;;10.40;99.90;;;;;;5037653;28;20017;-74
2023/05/13 02:39:20;;;;;;;6.53;5.25;;;10.40;99.90;;;;;;5035792;28;20030;-76
2023/05/13 02:41:46;;;;;;;5.90;3.67;;;10.30;99.90;;;;;;5036119;28;20025;-75
2023/05/13 02:44:12;;;;;;;8.07;3.70;;;10.40;99.90;;;;;;5037228;28;20394;-77
2023/05/13 02:46:37;;;;;;;5.03;4.53;;;10.40;99.90;;;;;;5037188;28;20407;-76
2023/05/13 02:49:03;;;;;;;4.53;3.95;;;10.30;99.90;;;;;;5035243;28;20511;-75
2023/05/13 02:51:28;;;;;;;5.57;4.28;;;10.30;99.90;;;;;;5036941;28;20080;-73
2023/05/13 02:53:54;;;;;;;4.55;4.03;;;10.40;99.90;;;;;;5037053;28;20091;-72
2023/05/13 02:56:20;;;;;;;6.25;4.55;;;10.30;99.90;;;;;;5036888;28;20441;-74
2023/05/13 02:58:46;;;;;;;5.90;4.38;;;10.40;99.90;;;;;;5034710;28;20108;-75
2023/05/13 03:01:12;;;;;;;5.43;4.43;;;10.40;99.90;;;;;;5035444;28;20097;-73
2023/05/13 03:03:37;;;;;;;6.15;4.60;;;10.40;99.90;;;;;;5034908;28;20716;-75
2023/05/13 03:06:04;;;;;;;5.80;4.00;;;10.40;99.90;;;;;;5036357;28;20026;-74
2023/05/13 03:08:30;;;;;;;6.40;4.50;;;10.40;99.90;;;;;;5034755;28;20049;-75
2023/05/13 03:10:56;;;;;;;5.18;4.00;;;10.40;99.90;;;;;;5036385;28;20018;-73
2023/05/13 03:13:22;;;;;;;4.88;4.38;;;10.40;99.90;;;;;;5035285;28;20025;-75
2023/05/13 03:15:48;;;;;;;5.20;4.70;;;10.40;99.90;;;;;;5035627;28;20472;-75
2023/05/13 03:18:13;;;;;;;9.48;4.40;;;10.50;99.90;;;;;;5034805;28;20061;-74
2023/05/13 03:20:39;;;;;;;5.15;3.90;;;10.40;99.90;;;;;;5036467;28;20021;-74
2023/05/13 03:23:04;;;;;;;4.43;4.03;;;10.50;99.90;;;;;;5036395;28;20033;-74
2023/05/13 03:25:30;;;;;;;6.00;4.50;;;10.40;99.90;;;;;;5036491;28;20026;-73
2023/05/13 03:27:56;;;;;;;7.15;4.82;;;10.50;99.90;;;;;;5035462;28;20029;-73
2023/05/13 03:30:21;;;;;;;5.53;4.47;;;10.40;99.90;;;;;;5035390;28;20033;-73
2023/05/13 03:32:47;;;;;;;5.70;5.20;;;10.40;99.90;;;;;;5035048;28;20026;-73
2023/05/13 03:35:13;;;;;;;8.38;5.25;;;10.50;99.90;;;;;;5036741;28;20576;-73
2023/05/13 03:37:39;;;;;;;5.63;4.30;;;10.50;99.90;;;;;;5035801;28;20693;-73
2023/05/13 03:40:05;;;;;;;4.72;4.18;;;10.50;99.90;;;;;;5036199;28;20041;-73
2023/05/13 03:42:31;;;;;;;6.82;4.93;;;10.50;99.90;;;;;;5034477;28;20841;-74
2023/05/13 03:44:56;;;;;;;5.68;4.25;;;10.50;99.90;;;;;;5036281;28;20033;-75
2023/05/13 03:47:22;;;;;;;8.57;5.05;;;10.50;99.90;;;;;;5035618;28;20025;-73
2023/05/13 03:49:48;;;;;;;7.25;4.50;;;10.50;99.90;;;;;;5035835;28;20026;-74
2023/05/13 03:52:15;;;;;;;8.57;4.75;;;10.50;99.90;;;;;;5034781;28;20091;-73
2023/05/13 03:54:41;;;;;;;6.72;4.97;;;10.50;99.90;;;;;;5036203;28;20026;-73
2023/05/13 03:57:07;;;;;;;5.30;4.40;;;10.50;99.90;;;;;;5035873;28;20022;-74
2023/05/13 03:59:33;;;;;;;7.28;5.50;;;10.50;99.90;;;;;;5034541;28;20025;-73
2023/05/13 04:01:58;;;;;;;5.60;5.10;;;10.50;99.90;;;;;;5036230;28;20088;-75
2023/05/13 04:04:24;;;;;;;7.90;5.03;;;10.50;99.90;;;;;;5036057;28;20494;-73
2023/05/13 04:06:50;;;;;;;7.10;5.15;;;10.50;99.90;;;;;;5036095;28;20030;-73
2023/05/13 04:09:15;;;;;;;5.68;4.72;;;10.50;99.90;;;;;;5035853;28;20026;-75
2023/05/13 04:11:41;;;;;;;8.95;5.38;;;10.50;99.90;;;;;;5035576;28;20036;-74
2023/05/13 04:14:07;;;;;;;6.50;4.72;;;10.50;99.90;;;;;;5036116;28;20052;-74
2023/05/13 04:16:32;;;;;;;5.38;4.88;;;10.50;99.90;;;;;;5035693;28;20026;-73
2023/05/13 04:18:58;;;;;;;9.93;6.88;;;10.50;99.90;;;;;;5035099;28;20092;-72
2023/05/13 04:21:24;;;;;;;6.68;5.55;;;10.50;99.90;;;;;;5035898;28;20464;-74
2023/05/13 04:23:49;;;;;;;5.55;4.90;;;10.50;99.90;;;;;;5036142;28;20485;-74
2023/05/13 04:26:15;;;;;;;8.25;5.32;;;10.40;99.90;;;;;;5035526;28;20037;-75
2023/05/13 04:28:41;;;;;;;5.38;4.72;;;10.50;99.90;;;;;;5034506;28;20029;-73
2023/05/13 04:31:07;;;;;;;5.15;4.63;;;10.50;99.90;;;;;;5035739;28;20033;-77
2023/05/13 04:33:32;;;;;;;5.05;4.63;;;10.50;99.90;;;;;;5034510;28;20056;-75
2023/05/13 04:35:58;;;;;;;7.07;4.07;;;10.50;99.90;;;;;;5035642;28;20052;-73
2023/05/13 04:38:23;;;;;;;6.85;4.18;;;10.50;99.90;;;;;;5035495;28;20025;-73
2023/05/13 04:40:50;;;;;;;5.45;4.95;;;10.50;99.90;;;;;;5035582;28;20072;-74
2023/05/13 04:43:16;;;;;;;6.20;5.13;;;10.50;99.90;;;;;;5035749;28;20029;-74
2023/05/13 04:45:41;;;;;;;5.85;5.10;;;10.60;99.90;;;;;;5034474;28;20121;-75
2023/05/13 04:48:07;;;;;;;6.32;4.85;;;10.50;99.90;;;;;;5035298;28;20033;-76
2023/05/13 04:50:33;;;;;;;5.63;4.60;;;10.50;99.90;;;;;;5017985;28;20060;-74
2023/05/13 04:52:58;;;;;;;5.53;4.78;;;10.50;99.90;;;;;;5034400;28;20025;-73
2023/05/13 04:55:24;;;;;;;8.63;5.45;;;10.50;99.90;;;;;;5035507;28;20014;-72
2023/05/13 04:57:50;;;;;;;5.78;5.03;;;10.50;99.90;;;;;;5035368;28;20121;-75
2023/05/13 05:00:16;;;;;;;16.58;6.55;;;10.50;99.90;;;;;;5036423;28;20044;-72
2023/05/13 05:02:41;;;;;;;8.65;5.53;;;10.50;99.90;;;;;;5038031;28;20448;-75
2023/05/13 05:05:07;;;;;;;5.53;4.95;;;10.60;99.90;;;;;;5039160;28;20079;-75
2023/05/13 05:07:33;;;;;;;10.63;5.35;;;10.60;99.90;;;;;;5037466;28;20030;-73
2023/05/13 05:09:59;;;;;;;9.35;5.65;;;10.50;99.90;;;;;;5038079;28;20032;-75
2023/05/13 05:12:25;;;;;;;7.47;5.10;;;10.60;99.90;;;;;;5037610;28;20029;-75
2023/05/13 05:14:50;;;;;;;7.00;5.47;;;10.60;99.90;;;;;;5039266;28;20024;-77
2023/05/13 05:17:16;;;;;;;7.95;5.28;;;10.60;99.90;;;;;;5039085;28;20048;-75
2023/05/13 05:19:42;;;;;;;10.80;5.45;;;10.60;99.90;;;;;;5038230;28;20120;-73
2023/05/13 05:22:07;;;;;;;8.07;5.57;;;10.60;99.90;;;;;;5039466;28;20105;-75
2023/05/13 05:24:33;;;;;;;7.03;5.78;;;10.70;99.90;;;;;;5038823;28;20033;-75
2023/05/13 05:27:00;;;;;;;7.10;4.90;;;10.70;99.90;;;;;;5037475;28;20056;-74
2023/05/13 05:29:27;;;;;;;6.20;5.38;;;10.70;99.90;;;;;;5036882;28;20030;-73
2023/05/13 05:31:52;;;;;;;6.22;5.18;;;10.70;99.90;;;;;;5038806;28;20033;-76
2023/05/13 05:34:18;;;;;;;9.45;5.95;;;10.80;99.90;;;;;;5038702;28;20489;-75
2023/05/13 05:36:43;;;;;;;7.55;5.68;;;10.80;99.90;;;;;;5038741;28;20091;-76
2023/05/13 05:39:09;;;;;;;5.75;4.70;;;10.80;99.90;;;;;;5038093;28;20389;-73
2023/05/13 05:41:35;;;;;;;8.02;5.88;;;10.80;99.90;;;;;;5037497;28;20044;-74
2023/05/13 05:44:01;;;;;;;8.98;5.20;;;10.90;99.90;;;;;;5038725;28;20044;-75
2023/05/13 05:46:26;;;;;;;9.27;6.13;;;10.80;99.90;;;;;;5037395;28;20113;-73
2023/05/13 05:48:52;;;;;;;6.47;5.20;;;10.90;99.90;;;;;;5037097;28;20490;-73
2023/05/13 05:51:18;;;;;;;8.23;5.45;;;10.90;99.90;;;;;;5036883;28;20541;-74
2023/05/13 05:53:43;;;;;;;7.85;5.93;;;11.00;99.90;;;;;;5038592;28;20482;-74
2023/05/13 05:56:09;;;;;;;8.65;6.03;;;11.00;99.90;;;;;;5037263;28;20017;-75
2023/05/13 05:58:35;;;;;;;6.90;5.35;;;11.00;99.90;;;;;;5037989;28;20025;-75
2023/05/13 06:01:00;;;;;;;6.80;5.45;;;11.00;99.90;;;;;;5034397;28;20481;-73
2023/05/13 06:03:26;;;;;;;7.97;6.88;;;11.10;99.90;;;;;;5036001;28;20029;-73
2023/05/13 06:05:53;;;;;;;7.32;5.78;;;11.10;99.90;;;;;;5037089;28;20032;-73
2023/05/13 06:08:19;;;;;;;7.50;6.20;;;11.20;99.90;;;;;;5036289;28;20124;-74
2023/05/13 06:10:44;;;;;;;10.73;5.68;;;11.20;99.90;;;;;;5037326;28;20052;-77
2023/05/13 06:13:11;;;;;;;7.15;6.03;;;11.20;99.90;;;;;;5035767;28;20060;-74
2023/05/13 06:15:39;;;;;;;8.13;5.95;;;11.20;99.90;;;;;;5037803;28;20020;-74
2023/05/13 06:18:05;;;;;;;8.30;5.32;;;11.30;99.90;;;;;;5033205;28;20069;-74
2023/05/13 06:20:31;;;;;;;9.20;5.70;;;11.30;99.90;;;;;;5036225;28;20444;-74
2023/05/13 06:22:57;;;;;;;5.82;4.90;;;11.40;99.90;;;;;;5037140;28;20029;-74
2023/05/13 06:25:23;;;;;;;5.93;5.35;;;11.40;99.90;;;;;;5032612;28;20092;-77
2023/05/13 06:27:48;;;;;;;8.60;5.50;;;11.50;99.90;;;;;;5032624;28;20061;-74
2023/05/13 06:30:14;;;;;;;8.05;5.22;;;11.50;99.90;;;;;;5035856;28;20489;-75
2023/05/13 06:32:40;;;;;;;8.43;5.93;;;11.60;99.90;;;;;;5037632;28;20025;-74
2023/05/13 06:35:06;;;;;;;6.85;5.88;;;11.60;99.90;;;;;;5032735;28;20064;-75
2023/05/13 06:37:31;;;;;;;6.28;4.88;;;11.60;99.90;;;;;;5034651;28;20060;-75
2023/05/13 06:39:58;;;;;;;5.85;5.25;;;11.70;99.90;;;;;;5035612;28;20029;-75
2023/05/13 06:42:24;;;;;;;9.90;4.95;;;11.60;99.90;;;;;;5033045;28;20152;-76
2023/05/13 06:44:49;;;;;;;10.10;5.57;;;11.70;99.90;;;;;;5034789;28;20052;-75
2023/05/13 06:47:15;;;;;;;8.85;5.28;;;11.70;99.90;;;;;;5034407;28;20395;-75
2023/05/13 06:49:41;;;;;;;6.88;5.75;;;11.80;99.90;;;;;;5034783;28;20080;-74
2023/05/13 06:52:10;;;;;;;9.20;5.90;;;11.80;99.90;;;;;;5031017;28;20025;-74
2023/05/13 06:54:36;;;;;;;8.38;5.32;;;11.90;99.90;;;;;;5033797;28;20060;-74
2023/05/13 06:57:04;;;;;;;7.35;5.28;;;12.00;99.90;;;;;;5029426;28;20017;-74
2023/05/13 06:59:30;;;;;;;7.88;5.85;;;12.00;99.90;;;;;;5032211;28;20026;-75
2023/05/13 07:01:56;;;;;;;7.47;6.07;;;12.00;99.90;;;;;;5031138;28;20072;-74
2023/05/13 07:04:21;;;;;;;8.80;5.72;;;12.00;99.90;;;;;;5034828;28;20033;-75
2023/05/13 07:06:47;;;;;;;9.52;5.50;;;12.00;99.90;;;;;;5031270;28;20080;-74
2023/05/13 07:09:13;;;;;;;7.53;5.60;;;12.00;99.90;;;;;;5031100;28;20033;-76
2023/05/13 07:11:39;;;;;;;8.45;5.32;;;12.10;99.90;;;;;;5033615;28;20017;-75
2023/05/13 07:14:05;;;;;;;7.30;5.30;;;12.00;99.90;;;;;;5036622;28;20029;-75
2023/05/13 07:16:31;;;;;;;18.23;5.88;;;12.20;99.90;;;;;;5032280;28;20854;-76
2023/05/13 07:18:56;;;;;;;7.03;5.55;;;12.10;99.90;;;;;;5034109;28;20053;-74
2023/05/13 07:21:22;;;;;;;6.28;4.90;;;12.20;99.90;;;;;;5032373;28;20087;-75
2023/05/13 07:23:47;;;;;;;11.30;5.22;;;12.20;99.90;;;;;;5032656;28;20029;-75
2023/05/13 07:26:13;;;;;;;8.50;5.43;;;12.20;99.90;;;;;;5033492;28;20037;-74
2023/05/13 07:28:39;;;;;;;8.18;5.70;;;12.30;99.90;;;;;;5033926;28;20021;-77
2023/05/13 07:31:04;;;;;;;10.75;5.15;;;12.40;99.90;;;;;;5036150;28;20096;-75
2023/05/13 07:33:30;;;;;;;6.10;5.15;;;12.50;99.90;;;;;;5034680;28;20029;-75
2023/05/13 07:35:56;;;;;;;7.93;4.90;;;12.60;99.90;;;;;;5036029;28;20026;-75
2023/05/13 07:38:22;;;;;;;8.98;5.15;;;12.70;99.90;;;;;;5035146;28;20025;-74
2023/05/13 07:40:48;;;;;;;14.40;5.85;;;12.80;99.90;;;;;;5033202;28;20017;-75
2023/05/13 07:43:16;;;;;;;9.27;5.25;;;12.90;99.90;;;;;;5033577;28;20048;-74
2023/05/13 07:45:42;;;;;;;7.28;5.25;;;12.90;99.90;;;;;;5034446;28;20040;-76
2023/05/13 07:48:08;;;;;;;6.18;5.57;;;12.80;99.90;;;;;;5033410;28;20486;-76
2023/05/13 07:50:35;;;;;;;7.55;4.82;;;12.80;99.90;;;;;;5032840;28;20026;-74
2023/05/13 07:53:02;;;;;;;6.25;4.78;;;12.70;99.90;;;;;;5036242;28;20076;-76
2023/05/13 07:55:27;;;;;;;7.13;5.00;;;12.80;99.90;;;;;;5036749;28;20021;-75
2023/05/13 07:57:53;;;;;;;8.35;6.85;;;12.80;99.90;;;;;;5036811;28;20052;-74
2023/05/13 08:00:19;;;;;;;9.20;4.90;;;12.80;99.90;;;;;;5036919;28;20084;-74
2023/05/13 08:02:44;;;;;;;7.75;4.93;;;12.90;99.90;;;;;;5037048;28;20053;-76
2023/05/13 08:05:11;;;;;;;9.98;6.05;;;13.10;99.90;;;;;;5036670;28;20682;-75
2023/05/13 08:07:37;;;;;;;6.15;4.43;;;13.10;99.90;;;;;;5037228;28;20026;-76
2023/05/13 08:10:03;;;;;;;8.32;5.13;;;13.20;99.90;;;;;;5035279;28;20029;-75
2023/05/13 08:12:29;;;;;;;10.43;5.32;;;13.30;99.90;;;;;;5036477;28;20025;-74
2023/05/13 08:14:54;;;;;;;6.88;4.65;;;13.40;99.90;;;;;;5036876;28;20048;-75
2023/05/13 08:17:20;;;;;;;7.90;5.38;;;13.50;99.90;;;;;;5036824;28;20060;-75
2023/05/13 08:19:46;;;;;;;10.57;4.43;;;13.60;99.90;;;;;;5031587;28;20052;-74
2023/05/13 08:22:11;;;;;;;4.82;4.03;;;13.50;99.90;;;;;;5036749;28;20025;-74
2023/05/13 08:24:39;;;;;;;4.95;4.45;;;13.60;99.90;;;;;;5035658;28;20040;-76
2023/05/13 08:27:05;;;;;;;5.22;4.55;;;13.60;99.90;;;;;;5036438;28;20563;-75
2023/05/13 08:29:31;;;;;;;7.25;4.72;;;13.70;99.90;;;;;;5035556;28;20191;-75
2023/05/13 08:31:56;;;;;;;9.50;4.78;;;13.80;99.90;;;;;;5038427;28;20485;-76
2023/05/13 08:34:22;;;;;;;4.80;4.00;;;13.90;99.90;;;;;;5039672;28;20030;-77
2023/05/13 08:36:48;;;;;;;5.78;3.80;;;14.00;99.90;;;;;;5040886;28;20104;-76
2023/05/13 08:39:13;;;;;;;6.43;4.05;;;14.20;99.90;;;;;;5041178;28;20444;-75
2023/05/13 08:41:41;;;;;;;6.78;4.05;;;14.20;99.90;;;;;;5039199;28;20034;-75
2023/05/13 08:44:11;;;;;;;5.15;3.97;;;14.30;99.90;;;;;;5040793;28;20104;-76
2023/05/13 08:46:37;;;;;;;8.02;4.18;;;14.30;99.90;;;;;;5040657;28;20025;-76
2023/05/13 08:49:03;;;;;;;7.05;3.95;;;14.30;99.90;;;;;;5040573;28;20037;-76
2023/05/13 08:51:29;;;;;;;5.93;4.25;;;14.30;99.90;;;;;;5040299;28;20029;-75
2023/05/13 08:53:55;;;;;;;4.90;4.30;;;14.50;99.90;;;;;;5039378;28;20093;-75
2023/05/13 08:56:24;;;;;;;5.75;3.83;;;14.70;99.90;;;;;;5039956;28;20107;-76
2023/05/13 08:58:50;;;;;;;5.82;3.92;;;14.60;99.90;;;;;;5039169;28;20022;-77
2023/05/13 09:01:16;;;;;;;8.32;3.97;;;14.50;99.90;;;;;;5038871;28;20031;-75
2023/05/13 09:03:53;;;;;;;4.30;3.72;;;14.50;99.90;;;;;;5037537;28;20378;-77
2023/05/13 09:06:19;;;;;;;5.35;3.53;;;14.30;99.90;;;;;;5040456;28;20073;-75
2023/05/13 09:08:45;;;;;;;8.98;4.68;;;14.20;99.90;;;;;;5040048;28;20539;-75
2023/05/13 09:11:11;;;;;;;8.00;4.25;;;14.30;99.90;;;;;;5038132;28;20108;-76
2023/05/13 09:13:37;;;;;;;6.05;3.55;;;14.30;99.90;;;;;;5039506;28;20029;-76
2023/05/13 09:16:02;;;;;;;6.60;4.03;;;14.40;99.90;;;;;;5038905;28;20454;-78
2023/05/13 09:18:30;;;;;;;5.80;3.70;;;14.60;99.90;;;;;;5038079;28;20117;-75
2023/05/13 09:20:56;;;;;;;7.13;3.95;;;14.90;99.90;;;;;;5039823;28;20027;-77
2023/05/13 09:23:22;;;;;;;4.70;4.13;;;15.10;99.90;;;;;;5039847;28;20586;-76
2023/05/13 09:25:48;;;;;;;4.50;3.85;;;15.10;99.90;;;;;;5039736;28;20492;-75
2023/05/13 09:28:14;;;;;;;5.22;3.53;;;15.30;99.90;;;;;;5039603;28;20061;-74
2023/05/13 09:30:40;;;;;;;4.93;3.45;;;15.40;99.90;;;;;;5038613;28;20053;-77
2023/05/13 09:33:20;;;;;;;4.25;3.10;;;15.10;99.90;;;;;;5039388;28;20410;-78
2023/05/13 09:35:51;;;;;;;7.68;3.63;;;14.90;99.90;;;;;;5040073;28;20034;-77
2023/05/13 09:38:18;;;;;;;;;;;14.80;99.90;;;;;;5039921;28;20145;-75
2023/05/13 09:40:55;;;;;;;5.47;3.58;;;14.70;99.90;;;;;;5039636;28;19956;-77
2023/05/13 09:43:23;;;;;;;4.65;3.28;;;14.60;99.90;;;;;;5027561;28;20033;-77
2023/05/13 09:45:56;;;;;;;4.47;3.33;;;14.50;99.90;;;;;;5038184;28;20036;-76
2023/05/13 09:48:26;;;;;;;4.78;3.45;;;14.50;99.90;;;;;;5039543;28;20498;-75
2023/05/13 09:50:52;;;;;;;6.85;4.15;;;14.70;99.90;;;;;;5039405;28;20033;-75
2023/05/13 09:53:21;;;;;;;5.60;4.03;;;15.00;99.90;;;;;;5039668;28;20375;-76
2023/05/13 09:55:48;;;;;;;3.75;3.25;;;15.30;99.90;;;;;;5037853;28;20060;-77
2023/05/13 09:58:14;;;;;;;4.65;2.92;;;15.40;99.90;;;;;;5038026;28;20021;-74
2023/05/13 10:00:41;;;;;;;4.68;2.92;;;15.60;99.90;;;;;;5038081;28;20036;-75
2023/05/13 10:03:08;;;;;;;5.75;3.00;;;15.90;99.90;;;;;;5039103;28;20045;-75
2023/05/13 10:05:34;;;;;;;3.63;2.53;;;15.90;99.90;;;;;;5038004;28;20695;-76
2023/05/13 10:08:01;;;;;;;5.72;3.33;;;15.90;99.90;;;;;;5037648;28;20025;-74
2023/05/13 10:10:30;;;;;;;4.10;2.97;;;15.90;99.90;;;;;;5037808;28;20028;-75
2023/05/13 10:13:02;;;;;;;6.30;3.13;;;16.10;99.90;;;;;;5028442;28;20514;-75
2023/05/13 10:15:29;;;;;;;3.63;2.55;;;16.60;99.90;;;;;;5030647;28;20049;-77
2023/05/13 10:17:56;;;;;;;4.38;2.92;;;16.60;99.90;;;;;;5026818;28;20041;-77
2023/05/13 10:20:25;;;;;;;5.88;3.03;;;16.40;99.90;;;;;;5030340;28;20029;-76
2023/05/13 10:22:51;;;;;;;4.53;2.75;;;16.20;99.90;;;;;;5025348;28;20367;-76
2023/05/13 10:25:17;;;;;;;3.58;2.65;;;16.10;99.90;;;;;;5027885;28;20029;-76
2023/05/13 10:27:43;;;;;;;6.10;3.03;;;16.00;99.90;;;;;;5031917;28;20044;-76
2023/05/13 10:30:10;;;;;;;4.00;2.80;;;16.00;99.90;;;;;;5037223;28;20116;-77
2023/05/13 10:32:40;;;;;;;2.85;2.08;;;15.80;99.90;;;;;;5038681;28;20034;-75
2023/05/13 10:35:17;;;;;;;6.18;3.17;;;15.70;99.90;;;;;;5036864;28;20030;-76
2023/05/13 10:38:04;;;;;;;4.80;2.95;;;15.80;99.90;;;;;;5038720;28;20112;-75
2023/05/13 10:40:51;;;;;;;5.43;3.00;;;16.00;99.90;;;;;;5036809;28;20051;-75
2023/05/13 10:43:23;;;;;;;4.28;2.80;;;16.20;99.90;;;;;;5036840;28;20029;-77
2023/05/13 10:45:54;;;;;;;4.43;2.78;;;16.30;99.90;;;;;;5038219;28;20052;-75
2023/05/13 10:48:22;;;;;;;6.28;2.97;;;16.30;99.90;;;;;;5035501;28;20474;-76
2023/05/13 10:50:56;;;;;;;5.85;2.67;;;16.50;99.90;;;;;;5038021;28;20096;-75
2023/05/13 10:53:29;;;;;;;6.57;2.80;;;16.80;99.90;;;;;;5028022;28;20155;-74
2023/05/13 10:55:59;;;;;;;3.55;2.58;;;16.90;99.90;;;;;;5035610;28;20024;-75
2023/05/13 10:58:29;;;;;;;3.03;2.50;;;16.90;99.90;;;;;;5038202;28;20053;-75
2023/05/13 11:01:11;;;;;;;;;;;17.00;99.90;;;;;;5038325;28;20021;-75
2023/05/13 11:03:39;;;;;;;6.07;3.35;;;17.30;99.90;;;;;;5037707;28;19906;-75
2023/05/13 11:06:13;;;;;;;4.82;2.65;;;17.60;99.90;;;;;;5038288;28;20036;-77
2023/05/13 11:08:41;;;;;;;6.78;3.00;;;17.70;99.90;;;;;;5037811;28;20056;-76
2023/05/13 11:11:21;;;;;;;7.30;2.70;;;17.50;99.90;;;;;;5036476;28;20025;-76
2023/05/13 11:14:12;;;;;;;4.28;2.30;;;17.30;99.90;;;;;;5037826;28;20071;-77
2023/05/13 11:16:43;;;;;;;4.57;2.60;;;17.60;99.90;;;;;;5036818;28;20021;-74
2023/05/13 11:19:22;;;;;;;5.10;2.35;;;17.50;99.90;;;;;;5018000;28;20446;-75
2023/05/13 11:21:56;;;;;;;6.20;2.67;;;17.60;99.90;;;;;;5030084;28;20029;-75
2023/05/13 11:24:23;;;;;;;5.47;2.45;;;17.70;99.90;;;;;;5036093;28;20036;-75
2023/05/13 11:26:50;;;;;;;4.60;2.58;;;17.60;99.90;;;;;;5037298;28;20025;-75
2023/05/13 11:29:34;;;;;;;4.38;2.42;;;17.30;99.90;;;;;;5037434;28;20033;-76
2023/05/13 11:32:03;;;;;;;8.20;2.75;;;17.10;99.90;;;;;;5037433;28;20034;-76
2023/05/13 11:34:29;;;;;;;3.90;2.45;;;17.10;99.90;;;;;;5037228;28;20029;-77
2023/05/13 11:37:03;;;;;;;5.97;2.67;;;17.20;99.90;;;;;;5037025;28;20019;-75
2023/05/13 11:39:32;;;;;;;4.18;2.28;;;17.10;99.90;;;;;;5037200;28;20025;-76
2023/05/13 11:42:00;;;;;;;4.57;2.72;;;17.40;99.90;;;;;;5037386;28;20021;-74
2023/05/13 11:44:26;;;;;;;5.30;2.65;;;17.60;99.90;;;;;;5037156;28;20067;-73
2023/05/13 11:47:04;;;;;;;4.28;2.22;;;17.60;99.90;;;;;;5037502;28;20140;-75
2023/05/13 11:49:38;;;;;;;7.07;2.78;;;17.30;99.90;;;;;;5036903;28;20038;-74
2023/05/13 11:52:15;;;;;;;4.50;2.30;;;17.10;99.90;;;;;;5035919;28;20390;-76
2023/05/13 11:54:52;;;;;;;2.88;2.20;;;17.00;99.90;;;;;;5036933;28;20159;-75
2023/05/13 11:57:31;;;;;;;1.85;1.63;;;16.90;99.90;;;;;;5031547;28;20445;-74
2023/05/13 11:59:59;;;;;;;5.13;2.00;;;16.80;99.90;;;;;;5035702;28;20049;-75
2023/05/13 12:02:33;;;;;;;4.97;2.38;;;17.00;99.90;;;;;;5036899;28;20076;-74
2023/05/13 12:05:04;;;;;;;7.80;2.83;;;17.30;99.90;;;;;;5036659;28;20021;-75
2023/05/13 12:07:31;;;;;;;4.28;2.25;;;17.70;99.90;;;;;;5035397;28;20116;-74
2023/05/13 12:09:58;;;;;;;3.97;2.28;;;18.10;99.90;;;;;;5036800;28;20029;-76
2023/05/13 12:12:26;;;;;;;4.43;2.00;;;18.10;99.90;;;;;;5036458;28;20084;-76
2023/05/13 12:14:54;;;;;;;3.90;1.85;;;17.90;99.90;;;;;;5036674;28;20032;-75
2023/05/13 12:17:20;;;;;;;3.15;2.53;;;17.80;99.90;;;;;;5035425;28;20555;-75
2023/05/13 12:20:10;;;;;;;2.45;1.73;;;17.90;99.90;;;;;;5036749;28;20033;-75
2023/05/13 12:22:56;;;;;;;5.65;2.00;;;18.10;99.90;;;;;;5027349;28;20021;-74
2023/05/13 12:25:32;;;;;;;4.68;1.95;;;18.40;99.90;;;;;;5035643;28;20036;-73
2023/05/13 12:27:58;;;;;;;4.50;2.05;;;18.60;99.90;;;;;;5031145;28;20080;-76
2023/05/13 12:30:24;;;;;;;6.60;2.33;;;18.80;99.90;;;;;;5031597;28;20033;-75
2023/05/13 12:32:50;;;;;;;2.72;1.63;;;19.00;99.90;;;;;;5031065;28;20017;-74
2023/05/13 12:35:16;;;;;;;5.40;1.73;;;18.70;99.90;;;;;;5036627;28;20025;-75
2023/05/13 12:37:42;;;;;;;2.10;1.48;;;18.50;99.90;;;;;;5036345;28;20017;-75
2023/05/13 12:40:12;;;;;;;4.18;1.50;;;18.80;99.90;;;;;;5036551;28;20036;-74
2023/05/13 12:42:37;;;;;;;4.82;1.75;;;19.10;99.90;;;;;;5036556;28;20433;-74
2023/05/13 12:45:04;;;;;;;4.80;1.70;;;18.90;99.90;;;;;;5036836;28;20033;-75
2023/05/13 12:47:30;;;;;;;3.42;2.10;;;18.70;99.90;;;;;;5031643;28;20029;-76
2023/05/13 12:49:57;;;;;;;2.88;1.80;;;18.30;99.90;;;;;;5035193;28;20050;-74